createdAt,value
2023-07-19T00:01:06.562Z,18.98
2023-07-19T00:03:33.859Z,18.97
2023-07-19T00:06:02.510Z,18.99
2023-07-19T00:08:29.577Z,18.99
2023-07-19T00:10:56.518Z,19.00
2023-07-19T00:13:24.764Z,19.00
2023-07-19T00:15:51.851Z,19.05
2023-07-19T00:18:18.790Z,19.18
2023-07-19T00:20:45.868Z,19.24
2023-07-19T00:23:13.108Z,19.12
2023-07-19T00:25:40.204Z,19.19
2023-07-19T00:28:07.100Z,19.17
2023-07-19T00:30:34.345Z,19.16
2023-07-19T00:33:01.348Z,19.10
2023-07-19T00:35:28.372Z,19.12
2023-07-19T00:37:55.357Z,19.08
2023-07-19T00:40:22.438Z,19.13
2023-07-19T00:42:49.410Z,19.03
2023-07-19T00:45:16.454Z,18.86
2023-07-19T00:47:43.543Z,18.79
2023-07-19T00:50:11.123Z,18.84
2023-07-19T00:52:38.973Z,18.95
2023-07-19T00:55:07.416Z,19.03
2023-07-19T00:57:35.416Z,19.02
2023-07-19T01:00:02.698Z,18.98
2023-07-19T01:02:30.722Z,18.98
2023-07-19T01:04:58.303Z,18.98
2023-07-19T01:07:25.747Z,19.00
2023-07-19T01:09:52.728Z,19.06
2023-07-19T01:12:20.627Z,19.02
2023-07-19T01:14:47.622Z,19.07
2023-07-19T01:17:14.594Z,19.04
2023-07-19T01:19:41.823Z,18.98
2023-07-19T01:22:08.938Z,18.97
2023-07-19T01:24:36.016Z,18.97
2023-07-19T01:27:20.787Z,18.93
2023-07-19T01:29:49.735Z,18.95
2023-07-19T01:32:16.737Z,18.96
2023-07-19T01:34:43.783Z,18.91
2023-07-19T01:37:10.776Z,18.89
2023-07-19T01:39:37.787Z,18.95
2023-07-19T01:42:04.845Z,18.98
2023-07-19T01:44:31.798Z,18.96
2023-07-19T01:46:58.698Z,19.01
2023-07-19T01:49:25.733Z,19.04
2023-07-19T01:51:52.637Z,19.04
2023-07-19T01:54:19.547Z,19.01
2023-07-19T01:56:46.461Z,18.99
2023-07-19T01:59:13.375Z,19.02
2023-07-19T02:01:40.985Z,19.02
2023-07-19T02:04:07.991Z,19.03
2023-07-19T02:06:35.115Z,19.01
2023-07-19T02:09:02.147Z,18.94
2023-07-19T02:11:29.206Z,18.95
2023-07-19T02:13:56.175Z,19.02
2023-07-19T02:16:23.173Z,18.98
2023-07-19T02:18:50.226Z,19.06
2023-07-19T02:21:17.239Z,19.05
2023-07-19T02:23:44.962Z,19.03
2023-07-19T02:26:11.921Z,19.00
2023-07-19T02:28:39.355Z,18.99
2023-07-19T02:31:06.372Z,19.01
2023-07-19T02:33:33.354Z,18.97
2023-07-19T02:36:00.351Z,18.98
2023-07-19T02:38:27.481Z,18.95
2023-07-19T02:41:02.313Z,18.93
2023-07-19T02:43:29.920Z,18.94
2023-07-19T02:45:57.431Z,18.93
2023-07-19T02:48:24.407Z,18.93
2023-07-19T02:50:51.490Z,18.91
2023-07-19T02:53:18.599Z,18.89
2023-07-19T02:55:48.529Z,18.88
2023-07-19T02:58:16.042Z,18.88
2023-07-19T03:00:44.690Z,18.91
2023-07-19T03:03:13.564Z,18.90
2023-07-19T03:05:46.130Z,18.90
2023-07-19T03:08:13.724Z,18.89
2023-07-19T03:10:41.198Z,18.89
2023-07-19T03:13:08.710Z,18.88
2023-07-19T03:15:36.205Z,18.88
2023-07-19T03:18:04.735Z,18.87
2023-07-19T03:20:32.403Z,18.88
2023-07-19T03:23:01.825Z,18.87
2023-07-19T03:25:30.359Z,18.82
2023-07-19T03:27:58.024Z,18.83
2023-07-19T03:30:25.395Z,18.86
2023-07-19T03:32:53.275Z,18.86
2023-07-19T03:35:21.949Z,18.80
2023-07-19T03:37:49.479Z,18.74
2023-07-19T03:40:16.760Z,18.76
2023-07-19T03:42:43.852Z,18.74
2023-07-19T03:45:11.431Z,18.74
2023-07-19T03:47:38.522Z,18.80
2023-07-19T03:50:06.455Z,18.80
2023-07-19T03:52:33.571Z,18.77
2023-07-19T03:55:00.590Z,18.79
2023-07-19T03:57:27.628Z,18.73
2023-07-19T03:59:55.319Z,18.75
2023-07-19T04:02:23.453Z,18.76
2023-07-19T04:04:50.918Z,18.76
2023-07-19T04:07:18.100Z,18.73
2023-07-19T04:09:45.480Z,18.75
2023-07-19T04:12:12.550Z,18.74
2023-07-19T04:14:40.025Z,18.66
2023-07-19T04:17:07.259Z,18.67
2023-07-19T04:19:34.326Z,18.67
2023-07-19T04:22:01.398Z,18.66
2023-07-19T04:24:28.634Z,18.66
2023-07-19T04:26:55.767Z,18.67
2023-07-19T04:29:23.174Z,18.67
2023-07-19T04:31:51.423Z,18.70
2023-07-19T04:34:18.643Z,18.59
2023-07-19T04:36:46.341Z,18.60
2023-07-19T04:39:13.399Z,18.68
2023-07-19T04:41:40.649Z,18.63
2023-07-19T04:44:07.625Z,18.64
2023-07-19T04:46:34.706Z,18.75
2023-07-19T04:49:02.018Z,18.77
2023-07-19T04:51:29.074Z,18.79
2023-07-19T04:53:56.486Z,18.80
2023-07-19T04:56:23.439Z,18.83
2023-07-19T04:58:50.377Z,18.86
2023-07-19T05:01:17.426Z,18.89
2023-07-19T05:03:44.405Z,18.91
2023-07-19T05:06:11.380Z,18.98
2023-07-19T05:08:38.725Z,18.93
2023-07-19T05:11:06.102Z,18.98
2023-07-19T05:13:33.030Z,18.99
2023-07-19T05:16:02.203Z,19.03
2023-07-19T05:18:29.934Z,19.04
2023-07-19T05:20:56.916Z,19.04
2023-07-19T05:23:24.978Z,19.08
2023-07-19T05:25:52.012Z,19.06
2023-07-19T05:28:21.480Z,19.11
2023-07-19T05:30:48.494Z,19.13
2023-07-19T05:33:16.045Z,19.16
2023-07-19T05:35:43.594Z,19.17
2023-07-19T05:38:10.586Z,19.20
2023-07-19T05:40:37.816Z,19.25
2023-07-19T05:43:04.822Z,19.32
2023-07-19T05:45:32.551Z,19.75
2023-07-19T05:48:00.130Z,21.02
2023-07-19T05:50:28.952Z,21.69
2023-07-19T05:52:56.016Z,22.11
2023-07-19T05:55:23.054Z,22.42
2023-07-19T05:57:49.998Z,22.62
2023-07-19T06:00:30.117Z,22.78
2023-07-19T06:02:57.707Z,22.88
2023-07-19T06:05:26.036Z,23.00
2023-07-19T06:07:53.714Z,23.15
2023-07-19T06:10:20.946Z,23.19
2023-07-19T06:12:48.477Z,23.28
2023-07-19T06:15:15.849Z,23.38
2023-07-19T06:17:43.994Z,23.44
2023-07-19T06:20:11.789Z,23.49
2023-07-19T06:22:38.973Z,23.57
2023-07-19T06:25:07.233Z,23.59
2023-07-19T06:27:34.262Z,23.60
2023-07-19T06:30:01.250Z,23.63
2023-07-19T06:32:28.343Z,23.67
2023-07-19T06:34:55.314Z,23.72
2023-07-19T06:37:22.298Z,23.74
2023-07-19T06:39:49.500Z,23.77
2023-07-19T06:42:16.480Z,23.79
2023-07-19T06:44:43.498Z,23.78
2023-07-19T06:47:10.475Z,23.82
2023-07-19T06:49:38.353Z,23.85
2023-07-19T06:52:06.074Z,23.88
2023-07-19T06:54:33.190Z,23.89
2023-07-19T06:57:00.151Z,23.88
2023-07-19T06:59:29.464Z,23.72
2023-07-19T07:01:56.438Z,23.77
2023-07-19T07:04:23.556Z,23.87
2023-07-19T07:06:50.655Z,23.91
2023-07-19T07:09:17.680Z,23.62
2023-07-19T07:11:44.638Z,23.57
2023-07-19T07:14:11.869Z,23.78
2023-07-19T07:16:38.901Z,23.86
2023-07-19T07:19:06.023Z,23.94
2023-07-19T07:21:33.127Z,23.97
2023-07-19T07:24:00.522Z,23.96
2023-07-19T07:26:27.630Z,23.94
2023-07-19T07:28:54.550Z,23.78
2023-07-19T07:31:21.865Z,23.79
2023-07-19T07:33:49.028Z,23.84
2023-07-19T07:36:15.979Z,23.44
2023-07-19T07:38:42.919Z,23.29
2023-07-19T07:41:12.554Z,23.46
2023-07-19T07:43:39.732Z,23.68
2023-07-19T07:46:06.811Z,23.74
2023-07-19T07:48:33.780Z,23.84
2023-07-19T07:51:00.865Z,23.94
2023-07-19T07:53:27.908Z,24.00
2023-07-19T07:55:55.084Z,24.03
2023-07-19T07:58:22.542Z,24.10
2023-07-19T08:00:49.683Z,24.12
2023-07-19T08:03:16.763Z,24.13
2023-07-19T08:05:43.940Z,24.14
2023-07-19T08:08:10.893Z,24.17
2023-07-19T08:10:41.512Z,24.22
2023-07-19T08:13:09.991Z,24.17
2023-07-19T08:15:37.192Z,24.17
2023-07-19T08:18:04.244Z,24.17
2023-07-19T08:20:31.619Z,24.16
2023-07-19T08:23:00.103Z,24.23
2023-07-19T08:25:28.615Z,24.31
2023-07-19T08:27:56.078Z,24.25
2023-07-19T08:30:24.349Z,24.33
2023-07-19T08:32:51.529Z,24.29
2023-07-19T08:35:19.312Z,24.29
2023-07-19T08:37:47.260Z,24.46
2023-07-19T08:40:16.250Z,24.40
2023-07-19T08:42:44.492Z,24.49
2023-07-19T08:45:14.618Z,24.60
2023-07-19T08:47:42.453Z,24.51
2023-07-19T08:50:12.332Z,24.70
2023-07-19T08:52:39.458Z,24.52
2023-07-19T08:55:07.646Z,24.56
2023-07-19T08:57:42.977Z,24.44
2023-07-19T09:00:10.482Z,24.49
2023-07-19T09:02:37.595Z,24.73
2023-07-19T09:05:12.268Z,24.63
2023-07-19T09:07:42.809Z,24.57
2023-07-19T09:10:11.346Z,24.44
2023-07-19T09:12:45.045Z,24.67
2023-07-19T09:15:14.780Z,24.95
2023-07-19T09:17:48.077Z,24.76
2023-07-19T09:20:16.612Z,24.59
2023-07-19T09:22:43.738Z,24.81
2023-07-19T09:25:12.924Z,24.92
2023-07-19T09:27:44.254Z,25.07
2023-07-19T09:30:13.263Z,24.89
2023-07-19T09:32:41.015Z,25.02
2023-07-19T09:35:10.002Z,24.77
2023-07-19T09:37:37.031Z,24.67
2023-07-19T09:40:06.190Z,24.62
2023-07-19T09:42:37.325Z,25.18
2023-07-19T09:45:07.501Z,25.17
2023-07-19T09:47:36.304Z,24.90
2023-07-19T09:50:05.343Z,25.27
2023-07-19T09:52:40.696Z,25.45
2023-07-19T09:55:08.933Z,25.39
2023-07-19T09:57:41.271Z,25.31
2023-07-19T10:00:10.427Z,25.49
2023-07-19T10:02:37.697Z,25.65
2023-07-19T10:05:09.685Z,25.50
2023-07-19T10:07:50.579Z,25.59
2023-07-19T10:10:21.177Z,25.50
2023-07-19T10:12:50.084Z,25.51
2023-07-19T10:15:21.934Z,25.46
2023-07-19T10:17:52.448Z,25.13
2023-07-19T10:20:26.658Z,25.50
2023-07-19T10:23:01.936Z,25.82
2023-07-19T10:25:37.551Z,25.79
2023-07-19T10:28:11.575Z,25.63
2023-07-19T10:31:04.416Z,25.25
2023-07-19T10:33:37.624Z,25.24
2023-07-19T10:36:10.955Z,25.56
2023-07-19T10:38:38.093Z,25.50
2023-07-19T10:41:10.077Z,25.14
2023-07-19T10:46:10.032Z,25.71
2023-07-19T10:48:41.642Z,26.12
2023-07-19T10:51:09.913Z,25.62
2023-07-19T10:54:00.810Z,25.81
2023-07-19T10:56:29.354Z,25.46
2023-07-19T10:59:01.897Z,26.01
2023-07-19T11:01:31.317Z,25.39
2023-07-19T11:04:06.910Z,26.21
2023-07-19T11:06:37.595Z,25.96
2023-07-19T11:09:06.712Z,26.63
2023-07-19T11:11:39.755Z,26.70
2023-07-19T11:14:07.653Z,26.62
2023-07-19T11:16:35.985Z,26.30
2023-07-19T11:19:03.036Z,26.09
2023-07-19T11:21:30.147Z,25.67
2023-07-19T11:23:57.194Z,26.15
2023-07-19T11:26:24.172Z,25.75
2023-07-19T11:28:59.508Z,25.46
2023-07-19T11:31:35.328Z,25.70
2023-07-19T11:34:11.258Z,25.84
2023-07-19T11:36:43.202Z,25.47
2023-07-19T11:39:24.909Z,25.24
2023-07-19T11:41:52.219Z,25.36
2023-07-19T11:44:23.102Z,25.18
2023-07-19T11:46:50.342Z,25.52
2023-07-19T11:49:17.743Z,25.31
2023-07-19T11:51:46.422Z,25.28
2023-07-19T11:54:15.482Z,25.83
2023-07-19T11:56:42.578Z,26.30
2023-07-19T11:59:09.633Z,25.84
2023-07-19T12:01:37.383Z,25.64
2023-07-19T12:04:05.020Z,26.24
2023-07-19T12:06:32.603Z,26.39
2023-07-19T12:09:00.096Z,26.59
2023-07-19T12:11:27.592Z,26.08
2023-07-19T12:13:58.356Z,26.29
2023-07-19T12:16:26.452Z,26.43
2023-07-19T12:18:53.509Z,25.80
2023-07-19T12:21:20.846Z,25.58
2023-07-19T12:23:58.323Z,26.33
2023-07-19T12:28:57.684Z,26.57
2023-07-19T12:31:24.884Z,26.03
2023-07-19T12:33:51.872Z,25.85
2023-07-19T12:36:19.047Z,26.27
2023-07-19T12:38:47.018Z,26.34
2023-07-19T12:41:14.080Z,26.46
2023-07-19T12:43:42.098Z,26.80
2023-07-19T12:46:09.091Z,26.58
2023-07-19T12:48:36.761Z,26.03
2023-07-19T12:51:05.394Z,25.73
2023-07-19T12:53:32.439Z,26.20
2023-07-19T12:55:59.497Z,26.40
2023-07-19T12:58:26.525Z,26.70
2023-07-19T13:00:53.491Z,27.21
2023-07-19T13:03:21.697Z,26.62
2023-07-19T13:05:49.920Z,27.09
2023-07-19T13:08:17.028Z,26.59
2023-07-19T13:10:44.446Z,26.87
2023-07-19T13:13:11.736Z,26.92
2023-07-19T13:15:39.029Z,26.73
2023-07-19T13:18:06.106Z,26.69
2023-07-19T13:20:33.757Z,26.58
2023-07-19T13:23:03.075Z,26.56
2023-07-19T13:25:30.565Z,26.56
2023-07-19T13:27:57.673Z,26.70
2023-07-19T13:30:25.328Z,26.98
2023-07-19T13:32:52.539Z,26.77
2023-07-19T13:35:54.613Z,26.62
2023-07-19T13:38:08.196Z,27.02
2023-07-19T13:40:38.154Z,26.80
2023-07-19T13:43:05.330Z,26.67
2023-07-19T13:45:33.100Z,27.34
2023-07-19T13:48:00.199Z,26.64
2023-07-19T13:50:27.236Z,26.26
2023-07-19T13:52:54.488Z,26.17
2023-07-19T13:55:21.776Z,26.27
2023-07-19T13:57:48.719Z,26.74
2023-07-19T14:00:16.374Z,26.76
2023-07-19T14:02:43.538Z,27.24
2023-07-19T14:05:11.266Z,27.43
2023-07-19T14:07:38.357Z,26.90
2023-07-19T14:10:06.786Z,26.99
2023-07-19T14:12:36.306Z,26.93
2023-07-19T14:15:09.032Z,26.85
2023-07-19T14:17:36.264Z,26.75
2023-07-19T14:20:08.111Z,26.77
2023-07-19T14:22:35.268Z,26.89
2023-07-19T14:25:02.697Z,26.56
2023-07-19T14:27:29.710Z,26.73
2023-07-19T14:29:57.928Z,26.59
2023-07-19T14:32:24.858Z,26.73
2023-07-19T14:34:52.440Z,26.75
2023-07-19T14:37:21.059Z,26.92
2023-07-19T14:39:48.446Z,26.94
2023-07-19T14:42:15.486Z,26.75
2023-07-19T14:44:42.508Z,26.69
2023-07-19T14:47:09.489Z,26.74
2023-07-19T14:49:37.782Z,26.67
2023-07-19T14:52:05.203Z,26.93
2023-07-19T14:54:32.229Z,26.93
2023-07-19T14:59:31.024Z,27.00
2023-07-19T15:01:58.221Z,26.77
2023-07-19T15:04:25.625Z,26.31
2023-07-19T15:06:53.854Z,26.42
2023-07-19T15:09:20.876Z,26.60
2023-07-19T15:11:48.895Z,25.86
2023-07-19T15:14:16.192Z,26.08
2023-07-19T15:16:43.385Z,26.14
2023-07-19T15:19:10.567Z,26.48
2023-07-19T15:21:41.605Z,26.47
2023-07-19T15:24:09.669Z,26.54
2023-07-19T15:26:40.396Z,26.21
2023-07-19T15:29:07.814Z,26.59
2023-07-19T15:31:35.266Z,26.64
2023-07-19T15:34:03.078Z,26.30
2023-07-19T15:36:30.279Z,26.48
2023-07-19T15:38:57.298Z,26.32
2023-07-19T15:41:25.042Z,26.36
2023-07-19T15:43:52.374Z,25.85
2023-07-19T15:46:19.387Z,26.14
2023-07-19T15:48:47.113Z,26.30
2023-07-19T15:51:14.607Z,26.31
2023-07-19T15:53:41.839Z,26.28
2023-07-19T15:56:10.550Z,26.11
2023-07-19T15:58:38.477Z,25.96
2023-07-19T16:01:09.829Z,26.03
2023-07-19T16:03:39.053Z,25.98
2023-07-19T16:06:08.338Z,25.73
2023-07-19T16:08:36.451Z,25.88
2023-07-19T16:11:04.234Z,25.78
2023-07-19T16:13:31.500Z,25.60
2023-07-19T16:15:58.628Z,25.67
2023-07-19T16:18:26.641Z,25.58
2023-07-19T16:20:53.943Z,25.68
2023-07-19T16:23:20.867Z,25.57
2023-07-19T16:25:47.924Z,25.73
2023-07-19T16:28:15.047Z,25.52
2023-07-19T16:30:42.316Z,25.62
2023-07-19T16:33:09.408Z,25.79
2023-07-19T16:35:36.499Z,25.85
2023-07-19T16:38:03.681Z,25.84
2023-07-19T16:40:30.823Z,26.01
2023-07-19T16:42:58.095Z,26.23
2023-07-19T16:45:25.457Z,26.08
2023-07-19T16:47:58.015Z,26.05
2023-07-19T16:50:28.976Z,25.61
2023-07-19T16:53:04.099Z,25.48
2023-07-19T16:55:31.590Z,25.70
2023-07-19T16:58:03.620Z,25.67
2023-07-19T17:00:30.908Z,25.77
2023-07-19T17:03:01.069Z,26.13
2023-07-19T17:05:28.151Z,26.10
2023-07-19T17:07:56.248Z,25.89
2023-07-19T17:10:23.552Z,25.71
2023-07-19T17:12:50.496Z,25.65
2023-07-19T17:15:17.660Z,25.45
2023-07-19T17:17:44.698Z,25.50
2023-07-19T17:20:12.109Z,25.27
2023-07-19T17:22:40.744Z,25.34
2023-07-19T17:25:08.279Z,25.33
2023-07-19T17:27:35.260Z,25.36
2023-07-19T17:30:04.812Z,25.17
2023-07-19T17:32:33.266Z,25.08
2023-07-19T17:35:00.879Z,25.04
2023-07-19T17:37:28.496Z,25.01
2023-07-19T17:39:55.450Z,24.89
2023-07-19T17:42:22.413Z,24.93
2023-07-19T17:44:49.419Z,24.84
2023-07-19T17:47:16.411Z,24.79
2023-07-19T17:49:43.352Z,24.74
2023-07-19T17:52:10.338Z,24.72
2023-07-19T17:54:37.402Z,24.74
2023-07-19T17:57:04.763Z,24.55
2023-07-19T17:59:31.659Z,24.47
2023-07-19T18:01:58.732Z,24.52
2023-07-19T18:04:26.288Z,24.57
2023-07-19T18:06:53.195Z,24.46
2023-07-19T18:09:20.226Z,24.45
2023-07-19T18:11:47.740Z,24.31
2023-07-19T18:14:14.750Z,24.29
2023-07-19T18:16:41.737Z,24.30
2023-07-19T18:19:08.696Z,24.28
2023-07-19T18:21:36.208Z,24.02
2023-07-19T18:24:03.193Z,23.86
2023-07-19T18:26:30.498Z,23.95
2023-07-19T18:28:57.426Z,23.85
2023-07-19T18:31:24.658Z,23.64
2023-07-19T18:33:52.026Z,23.86
2023-07-19T18:36:19.581Z,23.84
2023-07-19T18:38:46.502Z,23.84
2023-07-19T18:41:13.721Z,23.81
2023-07-19T18:43:41.027Z,23.74
2023-07-19T18:46:08.073Z,23.60
2023-07-19T18:48:35.204Z,23.47
2023-07-19T18:51:02.445Z,23.54
2023-07-19T18:53:34.810Z,23.47
2023-07-19T18:56:01.682Z,23.41
2023-07-19T18:58:28.722Z,23.28
2023-07-19T19:00:55.755Z,23.35
2023-07-19T19:03:22.764Z,23.30
2023-07-19T19:05:49.898Z,23.31
2023-07-19T19:08:21.581Z,23.19
2023-07-19T19:10:51.964Z,23.20
2023-07-19T19:13:19.026Z,23.11
2023-07-19T19:15:46.738Z,23.10
2023-07-19T19:18:13.801Z,23.07
2023-07-19T19:20:40.972Z,22.92
2023-07-19T19:23:09.255Z,22.89
2023-07-19T19:25:36.249Z,22.86
2023-07-19T19:28:03.816Z,22.85
2023-07-19T19:30:33.836Z,22.78
2023-07-19T19:33:01.342Z,22.75
2023-07-19T19:35:28.885Z,22.65
2023-07-19T19:37:55.901Z,22.64
2023-07-19T19:40:22.886Z,22.61
2023-07-19T19:42:49.857Z,22.55
2023-07-19T19:45:16.914Z,22.51
2023-07-19T19:47:44.539Z,22.49
2023-07-19T19:50:12.543Z,22.41
2023-07-19T19:52:39.577Z,22.37
2023-07-19T19:55:09.807Z,22.32
2023-07-19T19:57:36.876Z,22.23
2023-07-19T20:00:05.747Z,22.09
2023-07-19T20:02:37.757Z,22.00
2023-07-19T20:05:07.732Z,22.01
2023-07-19T20:07:34.809Z,21.87
2023-07-19T20:10:17.307Z,21.83
2023-07-19T20:12:45.923Z,21.81
2023-07-19T20:15:13.881Z,21.70
2023-07-19T20:17:41.165Z,21.65
2023-07-19T20:20:09.715Z,21.57
2023-07-19T20:22:50.448Z,21.58
2023-07-19T20:25:26.416Z,21.48
2023-07-19T20:28:04.917Z,21.44
2023-07-19T20:33:10.626Z,21.42
2023-07-19T20:43:09.991Z,21.21
2023-07-19T20:45:37.083Z,21.13
2023-07-19T20:48:04.874Z,21.13
2023-07-19T20:50:31.963Z,21.11
2023-07-19T20:53:01.458Z,21.01
2023-07-19T20:55:28.459Z,21.01
2023-07-19T20:57:55.442Z,20.94
2023-07-19T21:00:22.559Z,20.96
2023-07-19T21:02:49.772Z,20.86
2023-07-19T21:05:18.393Z,20.85
2023-07-19T21:07:45.437Z,20.82
2023-07-19T21:10:12.461Z,20.88
2023-07-19T21:12:39.405Z,20.83
2023-07-19T21:15:07.263Z,20.83
2023-07-19T21:17:35.621Z,20.76
2023-07-19T21:20:02.681Z,20.75
2023-07-19T21:22:29.697Z,20.68
2023-07-19T21:27:27.069Z,20.62
2023-07-19T21:29:54.625Z,20.63
2023-07-19T21:32:23.065Z,20.58
2023-07-19T21:34:50.380Z,20.54
2023-07-19T21:37:20.909Z,20.50
2023-07-19T21:39:48.674Z,20.48
2023-07-19T21:42:15.769Z,20.46
2023-07-19T21:44:43.467Z,20.43
2023-07-19T21:47:10.474Z,20.36
2023-07-19T21:49:37.504Z,20.34
2023-07-19T21:52:06.141Z,20.30
2023-07-19T21:54:33.149Z,20.24
2023-07-19T21:57:00.135Z,20.23
2023-07-19T21:59:27.282Z,20.18
2023-07-19T22:01:54.327Z,20.16
2023-07-19T22:04:21.409Z,20.13
2023-07-19T22:06:48.439Z,20.12
2023-07-19T22:09:15.564Z,20.09
2023-07-19T22:11:42.892Z,20.10
2023-07-19T22:14:11.529Z,20.09
2023-07-19T22:16:44.313Z,20.08
2023-07-19T22:19:15.459Z,20.04
2023-07-19T22:21:43.303Z,20.01
2023-07-19T22:24:10.207Z,19.94
2023-07-19T22:26:37.152Z,19.95
2023-07-19T22:29:05.997Z,19.95
2023-07-19T22:31:34.593Z,19.97
2023-07-19T22:34:02.186Z,19.93
2023-07-19T22:36:29.354Z,19.90
2023-07-19T22:38:56.322Z,19.90
2023-07-19T22:41:23.341Z,19.85
2023-07-19T22:43:50.553Z,19.80
2023-07-19T22:46:19.736Z,19.75
2023-07-19T22:48:50.948Z,19.72
2023-07-19T22:51:18.256Z,19.69
2023-07-19T22:53:46.950Z,19.66
2023-07-19T22:56:15.230Z,19.64
2023-07-19T22:58:42.331Z,19.65
2023-07-19T23:01:09.617Z,19.62
2023-07-19T23:03:36.846Z,19.58
2023-07-19T23:06:04.460Z,19.53
2023-07-19T23:08:31.574Z,19.48
2023-07-19T23:10:58.613Z,19.45
2023-07-19T23:13:25.769Z,19.38
2023-07-19T23:15:53.789Z,19.35
2023-07-19T23:18:23.971Z,19.34
2023-07-19T23:20:51.433Z,19.30
2023-07-19T23:23:19.763Z,19.27
2023-07-19T23:25:46.741Z,19.24
2023-07-19T23:28:14.470Z,19.20
2023-07-19T23:30:41.504Z,19.18
2023-07-19T23:33:08.784Z,19.17
2023-07-19T23:35:36.283Z,19.14
2023-07-19T23:38:04.271Z,19.16
2023-07-19T23:40:31.276Z,19.08
2023-07-19T23:42:58.316Z,19.04
2023-07-19T23:45:25.289Z,19.01
2023-07-19T23:47:52.684Z,18.99
2023-07-19T23:50:19.862Z,18.99
2023-07-19T23:52:46.901Z,18.95
2023-07-19T23:55:14.029Z,19.01
2023-07-19T23:57:41.008Z,19.01
